Main page
METAR-TAF:

METAR-TAF

Airports :

Ras Al Khaimah International Airport

Ras al-Khaimah, United Arab Emirates

latitude: 25-37N, longitude: 055-56E, elevation: 31 m

Current weather observation

The report was made 50 minutes ago, at 10:00 UTC
Wind 12 kt from the Northwest, varying between West and North/Northwest
Temperature 42°C
Humidity 36%
Pressure 995 hPa
Visibility: 8000 m

METAR: OMRK 121000Z 31012KT 270V330 8000 NSC 42/24 Q0995 A2939

Time: 14:50 (10:50 UTC)

Forecast

The report was made 5 hours and 50 minutes ago, at 05:00 UTC
Forecast valid from 12 at 06 UTC to 13 at 12 UTC
Wind 8 kt from the South/Southwest
Visibility: 8000 m
Becoming
from 12 at 07 UTC to 12 at 09 UTC
Wind 13 kt from the Northwest
Becoming
from 12 at 15 UTC to 12 at 17 UTC
Wind 2 kt from variable directions
Becoming
from 13 at 07 UTC to 13 at 09 UTC
Wind 10 kt from the Northwest

TAF: OMRK 120500Z 1206/1312 21008KT 8000 NSC BECMG 1207/1209 32013KT BECMG 1215/1217 VRB02KT BECMG 1307/1309 32010KT

Weather observations and forecasts of more than 4000 airports (METAR and TAF reports).

The available stations are represented by yellow and red dots on the map.

Hover mouse over dot to see the name of the station.

Then click to see weather observations and forecasts.

To change the map : click on the green buttons with a black cross to zoom in, on the green button with a dash to zoom out, or on the green arrows for adjacent maps.


METAR-TAF: